createdAt,value
2023-01-23T00:00:23.463Z,1018.39
2023-01-23T00:01:04.763Z,1018.43
2023-01-23T00:01:45.251Z,1018.41
2023-01-23T00:02:26.601Z,1018.39
2023-01-23T00:04:55.410Z,1018.36
2023-01-23T00:05:36.002Z,1018.38
2023-01-23T00:06:16.564Z,1018.38
2023-01-23T00:06:58.074Z,1018.38
2023-01-23T00:09:10.870Z,1018.37
2023-01-23T00:09:51.450Z,1018.39
2023-01-23T00:10:32.793Z,1018.37
2023-01-23T00:11:13.221Z,1018.39
2023-01-23T00:11:53.780Z,1018.36
2023-01-23T00:14:06.855Z,1018.38
2023-01-23T00:14:47.377Z,1018.36
2023-01-23T00:15:28.006Z,1018.37
2023-01-23T00:16:08.473Z,1018.34
2023-01-23T00:16:48.975Z,1018.35
2023-01-23T00:17:30.259Z,1018.35
2023-01-23T00:18:10.778Z,1018.36
2023-01-23T00:18:51.309Z,1018.35
2023-01-23T00:19:31.831Z,1018.32
2023-01-23T00:20:12.343Z,1018.34
2023-01-23T00:20:52.863Z,1018.33
2023-01-23T00:21:33.408Z,1018.35
2023-01-23T00:22:14.383Z,1018.35
2023-01-23T00:22:54.421Z,1018.35
2023-01-23T00:23:34.928Z,1018.36
2023-01-23T00:24:15.450Z,1018.34
2023-01-23T00:24:55.969Z,1018.34
2023-01-23T00:25:36.616Z,1018.29
2023-01-23T00:26:17.026Z,1018.38
2023-01-23T00:26:57.555Z,1018.34
2023-01-23T00:27:38.073Z,1018.34
2023-01-23T00:28:18.596Z,1018.34
2023-01-23T00:28:59.132Z,1018.33
2023-01-23T00:29:39.644Z,1018.31
2023-01-23T00:30:20.310Z,1018.32
2023-01-23T00:31:00.738Z,1018.29
2023-01-23T00:31:41.370Z,1018.26
2023-01-23T00:32:21.746Z,1018.32
2023-01-23T00:33:02.266Z,1018.3
2023-01-23T00:33:42.807Z,1018.26
2023-01-23T00:34:23.309Z,1018.26
2023-01-23T00:35:03.847Z,1018.25
2023-01-23T00:35:45.591Z,1018.25
2023-01-23T00:36:26.092Z,1018.22
2023-01-23T00:37:06.629Z,1018.25
2023-01-23T00:37:47.155Z,1018.22
2023-01-23T00:38:27.657Z,1018.25
2023-01-23T00:39:08.161Z,1018.23
2023-01-23T00:39:48.687Z,1018.22
2023-01-23T00:40:29.209Z,1018.25
2023-01-23T00:41:09.830Z,1018.26
2023-01-23T00:41:50.243Z,1018.25
2023-01-23T00:42:30.776Z,1018.23
2023-01-23T00:43:11.279Z,1018.29
2023-01-23T00:43:51.791Z,1018.26
2023-01-23T00:44:32.316Z,1018.28
2023-01-23T00:45:12.805Z,1018.27
2023-01-23T00:45:53.339Z,1018.26
2023-01-23T00:46:33.954Z,1018.28
2023-01-23T00:47:14.451Z,1018.3
2023-01-23T00:47:55.006Z,1018.25
2023-01-23T00:48:35.688Z,1018.27
2023-01-23T00:49:16.239Z,1018.28
2023-01-23T00:49:56.753Z,1018.29
2023-01-23T00:50:37.297Z,1018.28
2023-01-23T00:51:17.836Z,1018.3
2023-01-23T00:51:58.307Z,1018.26
2023-01-23T00:52:38.863Z,1018.28
2023-01-23T00:53:19.419Z,1018.3
2023-01-23T00:53:59.952Z,1018.31
2023-01-23T00:54:41.013Z,1018.28
2023-01-23T00:55:21.601Z,1018.29
2023-01-23T00:56:02.157Z,1018.31
2023-01-23T00:56:42.787Z,1018.33
2023-01-23T00:57:23.217Z,1018.32
2023-01-23T00:58:03.750Z,1018.39
2023-01-23T00:58:45.263Z,1018.37
2023-01-23T00:59:24.771Z,1018.39
2023-01-23T01:00:05.293Z,1018.35
2023-01-23T01:00:45.801Z,1018.36
2023-01-23T01:01:26.353Z,1018.35
2023-01-23T01:02:06.870Z,1018.37
2023-01-23T01:02:47.479Z,1018.32
2023-01-23T01:03:27.951Z,1018.36
2023-01-23T01:04:09.037Z,1018.35
2023-01-23T01:04:49.582Z,1018.38
2023-01-23T01:05:30.133Z,1018.37
2023-01-23T01:06:10.596Z,1018.4
2023-01-23T01:06:51.137Z,1018.35
2023-01-23T01:07:31.683Z,1018.35
2023-01-23T01:08:12.276Z,1018.4
2023-01-23T01:08:52.825Z,1018.4
2023-01-23T01:09:33.349Z,1018.36
2023-01-23T01:10:13.920Z,1018.39
2023-01-23T01:10:54.467Z,1018.39
2023-01-23T01:11:34.993Z,1018.4
2023-01-23T01:12:15.711Z,1018.4
2023-01-23T01:12:56.122Z,1018.41
2023-01-23T01:13:36.665Z,1018.4
2023-01-23T01:14:17.197Z,1018.39
2023-01-23T01:16:30.366Z,1018.43
2023-01-23T01:17:10.830Z,1018.41
2023-01-23T01:17:52.138Z,1018.42
2023-01-23T01:18:32.670Z,1018.44
2023-01-23T01:20:45.753Z,1018.48
2023-01-23T01:21:26.273Z,1018.47
2023-01-23T01:22:06.804Z,1018.48
2023-01-23T01:22:49.013Z,1018.47
2023-01-23T01:25:18.782Z,1018.46
2023-01-23T01:25:59.291Z,1018.47
2023-01-23T01:26:39.801Z,1018.47
2023-01-23T01:27:20.458Z,1018.47
2023-01-23T01:28:00.906Z,1018.43
2023-01-23T01:28:41.476Z,1018.45
2023-01-23T01:30:55.428Z,1018.49
2023-01-23T01:31:35.999Z,1018.48
2023-01-23T01:32:16.430Z,1018.48
2023-01-23T01:32:56.977Z,1018.52
2023-01-23T01:33:37.483Z,1018.45
2023-01-23T01:34:18.003Z,1018.51
2023-01-23T01:34:58.544Z,1018.5
2023-01-23T01:35:39.054Z,1018.5
2023-01-23T01:36:19.605Z,1018.51
2023-01-23T01:37:00.124Z,1018.52
2023-01-23T01:37:40.661Z,1018.55
2023-01-23T01:38:21.146Z,1018.54
2023-01-23T01:39:01.668Z,1018.54
2023-01-23T01:39:42.182Z,1018.56
2023-01-23T01:40:22.703Z,1018.57
2023-01-23T01:41:03.229Z,1018.57
2023-01-23T01:41:43.804Z,1018.56
2023-01-23T01:42:24.461Z,1018.55
2023-01-23T01:43:04.898Z,1018.53
2023-01-23T01:43:45.413Z,1018.52
2023-01-23T01:44:25.931Z,1018.53
2023-01-23T01:45:07.213Z,1018.49
2023-01-23T01:45:47.730Z,1018.55
2023-01-23T01:46:28.256Z,1018.52
2023-01-23T01:47:08.725Z,1018.51
2023-01-23T01:47:49.267Z,1018.52
2023-01-23T01:48:29.759Z,1018.53
2023-01-23T01:49:10.313Z,1018.55
2023-01-23T01:49:50.852Z,1018.57
2023-01-23T01:50:31.374Z,1018.55
2023-01-23T01:51:11.954Z,1018.52
2023-01-23T01:51:52.403Z,1018.52
2023-01-23T01:52:32.955Z,1018.55
2023-01-23T01:53:13.451Z,1018.56
2023-01-23T01:53:53.966Z,1018.53
2023-01-23T01:54:34.509Z,1018.6
2023-01-23T01:55:15.019Z,1018.55
2023-01-23T01:55:55.568Z,1018.57
2023-01-23T01:56:36.126Z,1018.55
2023-01-23T01:57:16.639Z,1018.58
2023-01-23T01:57:57.276Z,1018.59
2023-01-23T01:58:37.679Z,1018.57
2023-01-23T01:59:18.222Z,1018.58
2023-01-23T02:01:32.198Z,1018.59
2023-01-23T02:02:12.728Z,1018.64
2023-01-23T02:02:53.224Z,1018.62
2023-01-23T02:03:33.778Z,1018.59
2023-01-23T02:04:14.363Z,1018.6
2023-01-23T02:06:27.354Z,1018.63
2023-01-23T02:07:07.884Z,1018.65
2023-01-23T02:07:48.398Z,1018.64
2023-01-23T02:08:28.907Z,1018.66
2023-01-23T02:10:44.981Z,1018.63
2023-01-23T02:11:25.526Z,1018.61
2023-01-23T02:12:06.047Z,1018.6
2023-01-23T02:12:46.575Z,1018.61
2023-01-23T02:13:27.216Z,1018.64
2023-01-23T02:14:07.627Z,1018.67
2023-01-23T02:14:48.110Z,1018.62
2023-01-23T02:17:01.157Z,1018.64
2023-01-23T02:17:41.657Z,1018.62
2023-01-23T02:18:22.771Z,1018.67
2023-01-23T02:19:03.257Z,1018.64
2023-01-23T02:19:44.536Z,1018.68
2023-01-23T02:21:38.558Z,1018.67
2023-01-23T02:22:19.099Z,1018.7
2023-01-23T02:22:59.614Z,1018.67
2023-01-23T02:23:40.146Z,1018.67
2023-01-23T02:24:20.641Z,1018.72
2023-01-23T02:25:01.164Z,1018.68
2023-01-23T02:25:41.690Z,1018.71
2023-01-23T02:26:22.199Z,1018.7
2023-01-23T02:27:02.710Z,1018.71
2023-01-23T02:27:43.272Z,1018.7
2023-01-23T02:28:23.859Z,1018.71
2023-01-23T02:29:04.517Z,1018.73
2023-01-23T02:29:44.920Z,1018.7
2023-01-23T02:30:25.457Z,1018.71
2023-01-23T02:31:06.598Z,1018.71
2023-01-23T02:31:47.106Z,1018.7
2023-01-23T02:32:27.531Z,1018.72
2023-01-23T02:33:08.081Z,1018.68
2023-01-23T02:33:48.621Z,1018.68
2023-01-23T02:34:29.173Z,1018.7
2023-01-23T02:35:09.695Z,1018.73
2023-01-23T02:35:50.203Z,1018.74
2023-01-23T02:36:30.745Z,1018.71
2023-01-23T02:37:11.278Z,1018.69
2023-01-23T02:37:51.828Z,1018.7
2023-01-23T02:38:32.389Z,1018.75
2023-01-23T02:39:12.908Z,1018.71
2023-01-23T02:39:53.441Z,1018.69
2023-01-23T02:40:33.957Z,1018.7
2023-01-23T02:41:14.506Z,1018.73
2023-01-23T02:41:55.044Z,1018.76
2023-01-23T02:42:35.586Z,1018.7
2023-01-23T02:43:16.135Z,1018.76
2023-01-23T02:43:56.675Z,1018.78
2023-01-23T02:44:37.334Z,1018.8
2023-01-23T02:45:17.780Z,1018.8
2023-01-23T02:45:58.400Z,1018.79
2023-01-23T02:46:38.885Z,1018.83
2023-01-23T02:47:19.385Z,1018.82
2023-01-23T02:47:59.888Z,1018.78
2023-01-23T02:48:40.445Z,1018.81
2023-01-23T02:49:20.964Z,1018.78
2023-01-23T02:50:02.128Z,1018.79
2023-01-23T02:50:42.771Z,1018.78
2023-01-23T02:51:23.334Z,1018.79
2023-01-23T02:52:03.805Z,1018.77
2023-01-23T02:52:44.351Z,1018.75
2023-01-23T02:53:24.914Z,1018.78
2023-01-23T02:54:05.461Z,1018.77
2023-01-23T02:54:46.047Z,1018.75
2023-01-23T02:56:44.140Z,1018.74
2023-01-23T02:57:24.623Z,1018.74
2023-01-23T02:58:05.156Z,1018.73
2023-01-23T02:58:45.658Z,1018.72
2023-01-23T02:59:26.175Z,1018.75
2023-01-23T03:00:06.848Z,1018.75
2023-01-23T03:00:47.351Z,1018.75
2023-01-23T03:01:27.770Z,1018.76
2023-01-23T03:02:08.349Z,1018.76
2023-01-23T03:02:48.825Z,1018.73
2023-01-23T03:03:29.331Z,1018.73
2023-01-23T03:04:09.857Z,1018.77
2023-01-23T03:04:50.417Z,1018.77
2023-01-23T03:05:30.923Z,1018.76
2023-01-23T03:06:11.508Z,1018.76
2023-01-23T03:06:52.047Z,1018.75
2023-01-23T03:07:32.584Z,1018.73
2023-01-23T03:08:13.114Z,1018.7
2023-01-23T03:08:53.606Z,1018.72
2023-01-23T03:09:34.136Z,1018.71
2023-01-23T03:10:14.693Z,1018.72
2023-01-23T03:10:56.154Z,1018.72
2023-01-23T03:11:36.734Z,1018.7
2023-01-23T03:12:17.233Z,1018.72
2023-01-23T03:12:57.745Z,1018.7
2023-01-23T03:13:38.252Z,1018.71
2023-01-23T03:14:18.786Z,1018.74
2023-01-23T03:14:59.296Z,1018.74
2023-01-23T03:15:39.908Z,1018.71
2023-01-23T03:16:20.378Z,1018.73
2023-01-23T03:17:00.896Z,1018.73
2023-01-23T03:17:41.397Z,1018.73
2023-01-23T03:18:21.915Z,1018.73
2023-01-23T03:19:02.461Z,1018.71
2023-01-23T03:19:43.019Z,1018.73
2023-01-23T03:20:23.565Z,1018.7
2023-01-23T03:21:04.099Z,1018.71
2023-01-23T03:21:44.642Z,1018.7
2023-01-23T03:22:25.148Z,1018.7
2023-01-23T03:23:05.667Z,1018.68
2023-01-23T03:23:46.206Z,1018.7
2023-01-23T03:24:26.744Z,1018.65
2023-01-23T03:25:07.289Z,1018.68
2023-01-23T03:25:48.553Z,1018.67
2023-01-23T03:26:29.057Z,1018.62
2023-01-23T03:27:09.582Z,1018.67
2023-01-23T03:27:50.110Z,1018.66
2023-01-23T03:28:30.601Z,1018.66
2023-01-23T03:29:11.134Z,1018.65
2023-01-23T03:29:52.629Z,1018.66
2023-01-23T03:30:33.207Z,1018.64
2023-01-23T03:31:13.855Z,1018.68
2023-01-23T03:31:54.296Z,1018.69
2023-01-23T03:32:34.733Z,1018.69
2023-01-23T03:33:15.248Z,1018.66
2023-01-23T03:33:55.795Z,1018.68
2023-01-23T03:34:36.292Z,1018.64
2023-01-23T03:35:16.810Z,1018.65
2023-01-23T03:35:57.944Z,1018.63
2023-01-23T03:36:38.539Z,1018.63
2023-01-23T03:37:19.935Z,1018.63
2023-01-23T03:38:00.465Z,1018.61
2023-01-23T03:38:40.980Z,1018.61
2023-01-23T03:39:21.482Z,1018.58
2023-01-23T03:40:01.993Z,1018.59
2023-01-23T03:40:42.532Z,1018.64
2023-01-23T03:41:23.043Z,1018.6
2023-01-23T03:42:03.546Z,1018.61
2023-01-23T03:42:44.082Z,1018.61
2023-01-23T03:43:24.581Z,1018.6
2023-01-23T03:44:05.098Z,1018.57
2023-01-23T03:44:45.621Z,1018.6
2023-01-23T03:45:26.134Z,1018.6
2023-01-23T03:46:06.663Z,1018.57
2023-01-23T03:48:20.577Z,1018.52
2023-01-23T03:49:01.003Z,1018.54
2023-01-23T03:49:42.429Z,1018.52
2023-01-23T03:50:22.981Z,1018.53
2023-01-23T03:52:37.189Z,1018.52
2023-01-23T03:53:17.707Z,1018.48
2023-01-23T03:53:58.220Z,1018.51
2023-01-23T03:54:39.400Z,1018.52
2023-01-23T03:55:19.919Z,1018.51
2023-01-23T03:56:00.455Z,1018.49
2023-01-23T03:56:40.992Z,1018.5
2023-01-23T03:57:21.540Z,1018.47
2023-01-23T03:58:02.063Z,1018.46
2023-01-23T03:58:42.618Z,1018.47
2023-01-23T03:59:23.103Z,1018.45
2023-01-23T04:00:04.199Z,1018.45
2023-01-23T04:00:44.899Z,1018.48
2023-01-23T04:01:25.311Z,1018.49
2023-01-23T04:02:05.752Z,1018.53
2023-01-23T04:02:46.383Z,1018.53
2023-01-23T04:03:26.924Z,1018.56
2023-01-23T04:04:07.312Z,1018.57
2023-01-23T04:04:47.834Z,1018.57
2023-01-23T04:05:29.276Z,1018.55
2023-01-23T04:06:10.592Z,1018.54
2023-01-23T04:06:51.112Z,1018.52
2023-01-23T04:07:31.597Z,1018.55
2023-01-23T04:09:44.611Z,1018.57
2023-01-23T04:10:25.129Z,1018.61
2023-01-23T04:11:05.653Z,1018.6
2023-01-23T04:11:46.157Z,1018.57
2023-01-23T04:12:26.680Z,1018.55
2023-01-23T04:13:07.231Z,1018.59
2023-01-23T04:13:47.765Z,1018.59
2023-01-23T04:14:28.266Z,1018.61
2023-01-23T04:15:08.783Z,1018.59
2023-01-23T04:15:49.320Z,1018.59
2023-01-23T04:16:29.819Z,1018.57
2023-01-23T04:17:10.332Z,1018.57
2023-01-23T04:17:50.880Z,1018.56
2023-01-23T04:19:48.894Z,1018.6
2023-01-23T04:20:29.297Z,1018.58
2023-01-23T04:21:09.814Z,1018.62
2023-01-23T04:21:50.373Z,1018.61
2023-01-23T04:22:30.846Z,1018.68
2023-01-23T04:23:11.406Z,1018.7
2023-01-23T04:23:51.931Z,1018.73
2023-01-23T04:24:32.443Z,1018.78
2023-01-23T04:25:12.945Z,1018.77
2023-01-23T04:25:53.465Z,1018.79
2023-01-23T04:26:33.958Z,1018.83
2023-01-23T04:27:14.481Z,1018.79
2023-01-23T04:27:55.047Z,1018.81
2023-01-23T04:28:35.548Z,1018.83
2023-01-23T04:29:16.060Z,1018.82
2023-01-23T04:29:57.311Z,1018.86
2023-01-23T04:30:37.894Z,1018.83
2023-01-23T04:31:18.401Z,1018.87
2023-01-23T04:31:58.874Z,1018.85
2023-01-23T04:32:40.350Z,1018.86
2023-01-23T04:33:20.865Z,1018.9
2023-01-23T04:34:01.366Z,1018.88
2023-01-23T04:34:41.873Z,1018.92
2023-01-23T04:35:23.311Z,1018.88
2023-01-23T04:36:04.507Z,1018.99
2023-01-23T04:36:45.006Z,1018.95
2023-01-23T04:37:25.552Z,1018.96
2023-01-23T04:38:06.075Z,1018.99
2023-01-23T04:38:46.608Z,1018.98
2023-01-23T04:39:27.127Z,1018.99
2023-01-23T04:40:07.630Z,1018.97
2023-01-23T04:40:48.181Z,1019.01
2023-01-23T04:41:28.708Z,1019
2023-01-23T04:42:09.217Z,1018.97
2023-01-23T04:42:49.762Z,1019
2023-01-23T04:43:30.279Z,1019.02
2023-01-23T04:45:43.449Z,1018.99
2023-01-23T04:46:24.954Z,1019.01
2023-01-23T04:47:05.454Z,1019
2023-01-23T04:47:45.976Z,1019
2023-01-23T04:50:01.974Z,1019.1
2023-01-23T04:50:42.611Z,1019.08
2023-01-23T04:51:23.055Z,1019.12
2023-01-23T04:52:04.059Z,1019.14
2023-01-23T04:52:44.570Z,1019.13
2023-01-23T04:53:25.090Z,1019.12
2023-01-23T04:54:05.601Z,1019.09
2023-01-23T04:54:46.151Z,1019.1
2023-01-23T04:55:26.677Z,1019.1
2023-01-23T04:56:07.215Z,1019.13
2023-01-23T04:56:47.746Z,1019.09
2023-01-23T04:57:28.256Z,1019.13
2023-01-23T04:59:26.191Z,1019.1
2023-01-23T05:00:06.845Z,1019.15
2023-01-23T05:00:47.388Z,1019.14
2023-01-23T05:01:28.472Z,1019.15
2023-01-23T05:02:08.962Z,1019.16
2023-01-23T05:02:49.585Z,1019.14
2023-01-23T05:03:30.794Z,1019.15
2023-01-23T05:04:11.344Z,1019.14
2023-01-23T05:04:51.824Z,1019.17
2023-01-23T05:05:32.366Z,1019.15
2023-01-23T05:06:12.985Z,1019.17
2023-01-23T05:06:53.412Z,1019.21
2023-01-23T05:07:33.931Z,1019.19
2023-01-23T05:08:14.473Z,1019.13
2023-01-23T05:10:12.662Z,1019.1
2023-01-23T05:10:53.136Z,1019.09
2023-01-23T05:11:33.655Z,1019.1
2023-01-23T05:12:14.180Z,1019.09
2023-01-23T05:12:54.687Z,1019.1
2023-01-23T05:13:35.203Z,1019.1
2023-01-23T05:14:15.750Z,1019.07
2023-01-23T05:14:56.257Z,1019.1
2023-01-23T05:15:36.785Z,1019.04
2023-01-23T05:16:18.056Z,1019.05
2023-01-23T05:16:59.211Z,1019.03
2023-01-23T05:17:39.741Z,1019.07
2023-01-23T05:19:37.666Z,1019.05
2023-01-23T05:20:18.413Z,1019
2023-01-23T05:20:58.702Z,1019.01
2023-01-23T05:21:39.366Z,1019.04
2023-01-23T05:22:19.800Z,1019.02
2023-01-23T05:23:00.336Z,1019.01
2023-01-23T05:23:40.836Z,1019.03
2023-01-23T05:24:21.355Z,1019.02
2023-01-23T05:25:01.923Z,1019.02
2023-01-23T05:25:42.517Z,1019.04
2023-01-23T05:26:23.817Z,1019.06
2023-01-23T05:27:05.953Z,1019.09
2023-01-23T05:27:46.462Z,1019.03
2023-01-23T05:28:27.013Z,1019.04
2023-01-23T05:29:07.555Z,1019.03
2023-01-23T05:29:48.114Z,1019
2023-01-23T05:32:02.201Z,1019.05
2023-01-23T05:32:44.283Z,1019.07
2023-01-23T05:33:31.094Z,1019.06
2023-01-23T05:34:12.324Z,1019.11
2023-01-23T05:36:33.577Z,1019.12
2023-01-23T05:37:14.222Z,1019.17
2023-01-23T05:37:55.570Z,1019.17
2023-01-23T05:38:36.094Z,1019.19
2023-01-23T05:39:16.617Z,1019.15
2023-01-23T05:39:57.120Z,1019.18
2023-01-23T05:40:37.643Z,1019.17
2023-01-23T05:41:18.191Z,1019.18
2023-01-23T05:41:58.723Z,1019.19
2023-01-23T05:42:39.219Z,1019.17
2023-01-23T05:43:19.751Z,1019.18
2023-01-23T05:44:00.300Z,1019.2
2023-01-23T05:44:40.834Z,1019.17
2023-01-23T05:45:21.354Z,1019.15
2023-01-23T05:46:01.908Z,1019.17
2023-01-23T05:46:42.398Z,1019.12
2023-01-23T05:47:22.935Z,1019.18
2023-01-23T05:48:03.478Z,1019.14
2023-01-23T05:48:43.975Z,1019.12
2023-01-23T05:49:24.486Z,1019.17
2023-01-23T05:50:05.015Z,1019.21
2023-01-23T05:50:45.516Z,1019.19
2023-01-23T05:51:26.088Z,1019.14
2023-01-23T05:53:39.218Z,1019.21
2023-01-23T05:54:19.680Z,1019.2
2023-01-23T05:55:00.193Z,1019.15
2023-01-23T05:55:40.717Z,1019.2
2023-01-23T05:57:58.864Z,1019.23
2023-01-23T05:58:39.368Z,1019.23
2023-01-23T05:59:19.890Z,1019.23
2023-01-23T06:00:00.419Z,1019.27
2023-01-23T06:00:40.925Z,1019.25
2023-01-23T06:02:39.941Z,1019.23
2023-01-23T06:03:21.398Z,1019.25
2023-01-23T06:04:02.761Z,1019.24
2023-01-23T06:04:43.300Z,1019.24
2023-01-23T06:05:23.847Z,1019.28
2023-01-23T06:07:18.162Z,1019.26
2023-01-23T06:07:58.677Z,1019.27
2023-01-23T06:08:39.179Z,1019.32
2023-01-23T06:09:19.832Z,1019.3
2023-01-23T06:10:00.234Z,1019.31
2023-01-23T06:10:40.744Z,1019.27
2023-01-23T06:11:21.264Z,1019.28
2023-01-23T06:12:01.778Z,1019.3
2023-01-23T06:12:42.295Z,1019.26
2023-01-23T06:13:22.815Z,1019.29
2023-01-23T06:14:03.312Z,1019.31
2023-01-23T06:14:44.577Z,1019.31
2023-01-23T06:15:25.097Z,1019.29
2023-01-23T06:16:05.654Z,1019.26
2023-01-23T06:16:46.795Z,1019.25
2023-01-23T06:17:27.315Z,1019.25
2023-01-23T06:18:07.848Z,1019.21
2023-01-23T06:18:48.354Z,1019.23
2023-01-23T06:21:01.406Z,1019.19
2023-01-23T06:21:41.946Z,1019.21
2023-01-23T06:22:22.436Z,1019.21
2023-01-23T06:23:02.954Z,1019.24
2023-01-23T06:23:43.509Z,1019.22
2023-01-23T06:24:24.127Z,1019.26
2023-01-23T06:25:04.561Z,1019.28
2023-01-23T06:25:45.664Z,1019.21
2023-01-23T06:26:26.189Z,1019.23
2023-01-23T06:27:06.700Z,1019.3
2023-01-23T06:27:47.219Z,1019.31
2023-01-23T06:28:27.771Z,1019.3
2023-01-23T06:29:08.294Z,1019.3
2023-01-23T06:29:48.875Z,1019.33
2023-01-23T06:31:46.607Z,1019.31
2023-01-23T06:32:27.146Z,1019.32
2023-01-23T06:33:07.664Z,1019.3
2023-01-23T06:33:48.175Z,1019.33
2023-01-23T06:34:29.647Z,1019.35
2023-01-23T06:35:10.164Z,1019.34
2023-01-23T06:35:50.663Z,1019.32
2023-01-23T06:36:31.211Z,1019.3
2023-01-23T06:37:11.713Z,1019.32
2023-01-23T06:37:52.234Z,1019.34
2023-01-23T06:38:32.760Z,1019.32
2023-01-23T06:39:13.265Z,1019.33
2023-01-23T06:39:53.885Z,1019.34
2023-01-23T06:40:34.282Z,1019.35
2023-01-23T06:41:14.815Z,1019.34
2023-01-23T06:41:55.332Z,1019.37
2023-01-23T06:42:35.951Z,1019.35
2023-01-23T06:43:16.465Z,1019.35
2023-01-23T06:43:56.988Z,1019.38
2023-01-23T06:44:37.525Z,1019.41
2023-01-23T06:45:18.346Z,1019.38
2023-01-23T06:45:58.678Z,1019.39
2023-01-23T06:46:39.222Z,1019.4
2023-01-23T06:47:19.706Z,1019.42
2023-01-23T06:48:00.217Z,1019.42
2023-01-23T06:48:40.741Z,1019.43
2023-01-23T06:49:21.257Z,1019.46
2023-01-23T06:50:01.847Z,1019.48
2023-01-23T06:50:42.354Z,1019.47
2023-01-23T06:51:22.935Z,1019.48
2023-01-23T06:52:03.394Z,1019.51
2023-01-23T06:52:43.908Z,1019.51
2023-01-23T06:53:24.452Z,1019.5
2023-01-23T06:54:04.972Z,1019.52
2023-01-23T06:54:45.465Z,1019.54
2023-01-23T06:55:26.080Z,1019.55
2023-01-23T06:56:06.528Z,1019.56
2023-01-23T06:56:47.076Z,1019.59
2023-01-23T06:57:28.376Z,1019.58
2023-01-23T06:58:08.892Z,1019.63
2023-01-23T06:58:49.435Z,1019.65
2023-01-23T06:59:29.963Z,1019.63
2023-01-23T07:00:10.495Z,1019.68
2023-01-23T07:00:51.579Z,1019.68
2023-01-23T07:01:32.099Z,1019.67
2023-01-23T07:02:12.608Z,1019.69
2023-01-23T07:02:53.143Z,1019.68
2023-01-23T07:03:33.673Z,1019.71
2023-01-23T07:04:14.173Z,1019.71
2023-01-23T07:04:54.697Z,1019.74
2023-01-23T07:05:35.281Z,1019.78
2023-01-23T07:06:15.769Z,1019.8
2023-01-23T07:06:56.294Z,1019.81
2023-01-23T07:07:37.364Z,1019.81
2023-01-23T07:08:17.973Z,1019.81
2023-01-23T07:08:58.497Z,1019.84
2023-01-23T07:09:39.002Z,1019.83
2023-01-23T07:10:19.786Z,1019.85
2023-01-23T07:11:00.148Z,1019.87
2023-01-23T07:11:40.534Z,1019.91
2023-01-23T07:12:21.063Z,1019.91
2023-01-23T07:13:01.617Z,1019.91
2023-01-23T07:13:42.142Z,1019.91
2023-01-23T07:14:23.377Z,1019.91
2023-01-23T07:15:03.905Z,1019.92
2023-01-23T07:15:44.465Z,1019.92
2023-01-23T07:16:25.072Z,1019.94
2023-01-23T07:17:05.479Z,1019.97
2023-01-23T07:17:46.640Z,1019.98
2023-01-23T07:18:27.165Z,1020
2023-01-23T07:19:07.754Z,1020.02
2023-01-23T07:19:48.364Z,1020
2023-01-23T07:20:28.795Z,1020.04
2023-01-23T07:21:09.312Z,1019.99
2023-01-23T07:21:49.839Z,1020.05
2023-01-23T07:22:30.392Z,1020.03
2023-01-23T07:23:10.920Z,1020.05
2023-01-23T07:23:51.426Z,1020.08
2023-01-23T07:24:31.947Z,1020.07
2023-01-23T07:25:12.461Z,1020.08
2023-01-23T07:25:53.060Z,1020.08
2023-01-23T07:26:33.717Z,1020.08
2023-01-23T07:27:14.119Z,1020.09
2023-01-23T07:27:54.665Z,1020.1
2023-01-23T07:28:35.161Z,1020.09
2023-01-23T07:29:15.697Z,1020.11
2023-01-23T07:29:56.242Z,1020.07
2023-01-23T07:30:36.827Z,1020.03
2023-01-23T07:31:17.443Z,1020.03
2023-01-23T07:31:58.787Z,1020.09
2023-01-23T07:32:40.273Z,1020.1
2023-01-23T07:33:20.798Z,1020.09
2023-01-23T07:34:01.326Z,1020.11
2023-01-23T07:34:41.848Z,1020.09
2023-01-23T07:35:22.359Z,1020.15
2023-01-23T07:36:02.871Z,1020.13
2023-01-23T07:36:44.410Z,1020.15
2023-01-23T07:37:24.897Z,1020.13
2023-01-23T07:38:05.421Z,1020.12
2023-01-23T07:38:45.965Z,1020.14
2023-01-23T07:40:43.914Z,1020.1
2023-01-23T07:41:26.395Z,1020.1
2023-01-23T07:42:07.071Z,1020.13
2023-01-23T07:42:47.442Z,1020.06
2023-01-23T07:43:27.984Z,1020.06
2023-01-23T07:44:08.474Z,1020.08
2023-01-23T07:44:49.039Z,1020.1
2023-01-23T07:45:29.530Z,1020.17
2023-01-23T07:46:10.130Z,1020.21
2023-01-23T07:46:50.782Z,1020.21
2023-01-23T07:47:31.181Z,1020.19
2023-01-23T07:50:32.342Z,1020.09
2023-01-23T07:51:12.976Z,1020.13
2023-01-23T07:51:53.396Z,1020.16
2023-01-23T07:52:33.893Z,1020.09
2023-01-23T07:53:14.397Z,1020.14
2023-01-23T07:53:54.931Z,1020.15
2023-01-23T07:54:35.457Z,1020.18
2023-01-23T07:56:48.621Z,1020.16
2023-01-23T07:57:29.245Z,1020.18
2023-01-23T07:58:10.161Z,1020.21
2023-01-23T07:58:51.452Z,1020.24
2023-01-23T07:59:31.995Z,1020.21
2023-01-23T08:00:12.501Z,1020.2
2023-01-23T08:00:53.031Z,1020.19
2023-01-23T08:01:33.561Z,1020.21
2023-01-23T08:02:14.815Z,1020.26
2023-01-23T08:02:55.351Z,1020.2
2023-01-23T08:03:36.746Z,1020.22
2023-01-23T08:04:17.808Z,1020.19
2023-01-23T08:04:58.299Z,1020.21
2023-01-23T08:05:38.833Z,1020.2
2023-01-23T08:06:19.357Z,1020.2
2023-01-23T08:06:59.885Z,1020.19
2023-01-23T08:07:40.383Z,1020.22
2023-01-23T08:08:20.898Z,1020.19
2023-01-23T08:09:01.457Z,1020.21
2023-01-23T08:09:42.671Z,1020.23
2023-01-23T08:10:23.218Z,1020.23
2023-01-23T08:11:03.702Z,1020.2
2023-01-23T08:11:44.218Z,1020.21
2023-01-23T08:12:24.720Z,1020.22
2023-01-23T08:13:05.390Z,1020.22
2023-01-23T08:13:45.855Z,1020.25
2023-01-23T08:14:26.501Z,1020.22
2023-01-23T08:15:07.007Z,1020.21
2023-01-23T08:15:47.484Z,1020.24
2023-01-23T08:16:28.148Z,1020.21
2023-01-23T08:17:08.582Z,1020.22
2023-01-23T08:17:49.072Z,1020.24
2023-01-23T08:18:29.641Z,1020.21
2023-01-23T08:19:10.174Z,1020.22
2023-01-23T08:19:50.705Z,1020.23
2023-01-23T08:20:31.239Z,1020.2
2023-01-23T08:22:44.331Z,1020.19
2023-01-23T08:23:25.505Z,1020.16
2023-01-23T08:24:06.057Z,1020.2
2023-01-23T08:24:46.597Z,1020.2
2023-01-23T08:25:27.108Z,1020.22
2023-01-23T08:26:07.641Z,1020.21
2023-01-23T08:26:48.179Z,1020.22
2023-01-23T08:27:28.745Z,1020.21
2023-01-23T08:28:09.381Z,1020.2
2023-01-23T08:28:49.856Z,1020.21
2023-01-23T08:29:30.369Z,1020.2
2023-01-23T08:31:28.529Z,1020.15
2023-01-23T08:32:08.979Z,1020.15
2023-01-23T08:32:49.446Z,1020.12
2023-01-23T08:33:29.961Z,1020.15
2023-01-23T08:34:10.548Z,1020.15
2023-01-23T08:34:51.976Z,1020.19
2023-01-23T08:35:32.509Z,1020.13
2023-01-23T08:36:13.112Z,1020.14
2023-01-23T08:36:53.603Z,1020.16
2023-01-23T08:37:34.122Z,1020.18
2023-01-23T08:38:14.689Z,1020.24
2023-01-23T08:38:55.216Z,1020.24
2023-01-23T08:39:35.764Z,1020.23
2023-01-23T08:40:16.960Z,1020.26
2023-01-23T08:40:57.490Z,1020.29
2023-01-23T08:41:38.006Z,1020.27
2023-01-23T08:42:18.584Z,1020.26
2023-01-23T08:42:59.888Z,1020.26
2023-01-23T08:43:40.560Z,1020.22
2023-01-23T08:44:20.989Z,1020.25
2023-01-23T08:45:01.559Z,1020.23
2023-01-23T08:45:42.263Z,1020.22
2023-01-23T08:46:22.676Z,1020.19
2023-01-23T08:47:03.267Z,1020.17
2023-01-23T08:47:43.875Z,1020.19
2023-01-23T08:48:25.024Z,1020.12
2023-01-23T08:49:06.093Z,1020.18
2023-01-23T08:49:46.599Z,1020.15
2023-01-23T08:50:27.147Z,1020.16
2023-01-23T08:51:07.765Z,1020.16
2023-01-23T08:51:49.098Z,1020.2
2023-01-23T08:52:30.439Z,1020.19
2023-01-23T08:53:10.984Z,1020.25
2023-01-23T08:55:04.087Z,1020.26
2023-01-23T08:55:45.594Z,1020.27
2023-01-23T08:56:26.118Z,1020.26
2023-01-23T08:57:06.658Z,1020.28
2023-01-23T08:57:47.207Z,1020.28
2023-01-23T08:58:27.801Z,1020.26
2023-01-23T08:59:09.369Z,1020.28
2023-01-23T08:59:49.786Z,1020.25
2023-01-23T09:00:30.334Z,1020.25
2023-01-23T09:01:10.898Z,1020.27
2023-01-23T09:01:51.473Z,1020.28
2023-01-23T09:02:32.043Z,1020.24
2023-01-23T09:03:13.460Z,1020.22
2023-01-23T09:03:54.043Z,1020.25
2023-01-23T09:04:34.593Z,1020.26
2023-01-23T09:05:15.141Z,1020.27
2023-01-23T09:05:55.695Z,1020.24
2023-01-23T09:06:36.209Z,1020.28
2023-01-23T09:07:16.764Z,1020.26